マニラ/ニノイ・アキノ の空港の天気 - METARとTAF

ニノイ・アキノ国際空港 ( RPLL / MNL ) - フィリピン マニラ
飛行場実況気象(Metar)
観測時間01/23 16:00 PHT (01/23 08:00 UTC)
風向・風速北東 4m/s
視程10km以上
天気現象
少しの雲 雲底高度 670m
全天の4割程度の雲 雲底高度 700m
全天の8割程度の雲 雲底高度 3050m
気温30℃
湿度62%
気圧1007hPa
METARRPLL 230800Z 04007KT 330V080 9999 FEW022CB SCT023 BKN100 30/22 Q1007 RESHRA NOSIG RMK A2974 CB N-NE-E
過去の天気等 Google飛行場航空写真 Wunderground天気予報

過去48時間のMETAR

飛行場予報(TAF)
発表時間: 1/23 13:00 PHT (1/23 05:00 UTC)
予報対象時間: 23日14時 PHT ~ 24日20時 PHT
風向・風速東北東 3m/s
視程10km以上
少しの雲 雲底高度 700m
全天の4割程度の雲 雲底高度 3,050m
23日14時 PHT ~ 23日20時 PHT に一時的に
風向・風速北東 5m/s
全天の4割程度の雲 雲底高度 700m
全天の8割程度の雲 雲底高度 3,050m
23日20時 PHT ~ 24日2時 PHT に一時的に
風向・風速東北東 3m/s
少しの雲 雲底高度 700m
全天の8割程度の雲 雲底高度 3,050m
TAF RPLL 230500Z 2306/2412 07006KT 9999 FEW023 SCT100 TX31/2306Z TN25/2322Z
TEMPO 2306/2312 05010KT SCT023 BKN100
TEMPO 2312/2318 06005KT FEW023 BKN100